sensor_id;sensor_type;location;lat;lon;timestamp;P1;durP1;ratioP1;P2;durP2;ratioP2
20334;SDS011;10325;51.468;5.804;2023-06-10T00:01:56;3.53;;;3.23;;
20334;SDS011;10325;51.468;5.804;2023-06-10T00:04:30;3.53;;;3.23;;
20334;SDS011;10325;51.468;5.804;2023-06-10T00:07:02;3.57;;;3.23;;
20334;SDS011;10325;51.468;5.804;2023-06-10T00:09:42;5.27;;;3.40;;
20334;SDS011;10325;51.468;5.804;2023-06-10T00:12:15;3.80;;;3.43;;
20334;SDS011;10325;51.468;5.804;2023-06-10T00:14:44;4.93;;;3.40;;
20334;SDS011;10325;51.468;5.804;2023-06-10T00:17:11;4.27;;;3.40;;
20334;SDS011;10325;51.468;5.804;2023-06-10T00:19:39;3.10;;;2.90;;
20334;SDS011;10325;51.468;5.804;2023-06-10T00:22:11;3.50;;;3.20;;
20334;SDS011;10325;51.468;5.804;2023-06-10T00:24:42;3.40;;;2.90;;
20334;SDS011;10325;51.468;5.804;2023-06-10T00:27:12;3.60;;;3.30;;
20334;SDS011;10325;51.468;5.804;2023-06-10T00:29:43;3.37;;;3.17;;
20334;SDS011;10325;51.468;5.804;2023-06-10T00:32:17;4.10;;;3.13;;
20334;SDS011;10325;51.468;5.804;2023-06-10T00:34:49;4.00;;;3.30;;
20334;SDS011;10325;51.468;5.804;2023-06-10T00:37:18;3.67;;;3.20;;
20334;SDS011;10325;51.468;5.804;2023-06-10T00:39:54;3.30;;;3.07;;
20334;SDS011;10325;51.468;5.804;2023-06-10T00:42:25;3.73;;;3.30;;
20334;SDS011;10325;51.468;5.804;2023-06-10T00:44:54;3.70;;;3.20;;
20334;SDS011;10325;51.468;5.804;2023-06-10T00:47:23;4.40;;;3.73;;
20334;SDS011;10325;51.468;5.804;2023-06-10T00:49:51;3.43;;;3.13;;
20334;SDS011;10325;51.468;5.804;2023-06-10T00:52:28;3.33;;;3.10;;
20334;SDS011;10325;51.468;5.804;2023-06-10T00:54:59;3.63;;;3.27;;
20334;SDS011;10325;51.468;5.804;2023-06-10T00:57:31;4.60;;;3.43;;
20334;SDS011;10325;51.468;5.804;2023-06-10T01:00:03;3.47;;;3.17;;
20334;SDS011;10325;51.468;5.804;2023-06-10T01:02:37;3.40;;;3.10;;
20334;SDS011;10325;51.468;5.804;2023-06-10T01:05:08;3.63;;;3.23;;
20334;SDS011;10325;51.468;5.804;2023-06-10T01:10:41;3.33;;;3.03;;
20334;SDS011;10325;51.468;5.804;2023-06-10T01:13:25;3.50;;;3.20;;
20334;SDS011;10325;51.468;5.804;2023-06-10T01:15:58;5.13;;;3.07;;
20334;SDS011;10325;51.468;5.804;2023-06-10T01:18:30;3.37;;;3.07;;
20334;SDS011;10325;51.468;5.804;2023-06-10T01:21:03;3.40;;;3.10;;
20334;SDS011;10325;51.468;5.804;2023-06-10T01:23:37;3.30;;;3.00;;
20334;SDS011;10325;51.468;5.804;2023-06-10T01:26:09;2.97;;;2.67;;
20334;SDS011;10325;51.468;5.804;2023-06-10T01:28:58;3.13;;;2.87;;
20334;SDS011;10325;51.468;5.804;2023-06-10T01:31:48;3.57;;;3.27;;
20334;SDS011;10325;51.468;5.804;2023-06-10T01:34:23;4.07;;;3.20;;
20334;SDS011;10325;51.468;5.804;2023-06-10T01:36:54;3.50;;;3.20;;
20334;SDS011;10325;51.468;5.804;2023-06-10T01:39:46;3.70;;;3.40;;
20334;SDS011;10325;51.468;5.804;2023-06-10T01:42:19;3.50;;;3.20;;
20334;SDS011;10325;51.468;5.804;2023-06-10T01:44:53;3.27;;;2.97;;
20334;SDS011;10325;51.468;5.804;2023-06-10T01:47:26;3.60;;;3.30;;
20334;SDS011;10325;51.468;5.804;2023-06-10T01:49:56;3.43;;;3.13;;
20334;SDS011;10325;51.468;5.804;2023-06-10T01:52:25;3.70;;;3.27;;
20334;SDS011;10325;51.468;5.804;2023-06-10T01:54:54;3.93;;;3.50;;
20334;SDS011;10325;51.468;5.804;2023-06-10T01:57:26;3.47;;;3.17;;
20334;SDS011;10325;51.468;5.804;2023-06-10T01:59:56;3.50;;;3.20;;
20334;SDS011;10325;51.468;5.804;2023-06-10T02:02:28;3.30;;;3.07;;
20334;SDS011;10325;51.468;5.804;2023-06-10T02:05:02;4.47;;;3.07;;
20334;SDS011;10325;51.468;5.804;2023-06-10T02:07:37;3.23;;;2.93;;
20334;SDS011;10325;51.468;5.804;2023-06-10T02:10:08;3.67;;;3.37;;
20334;SDS011;10325;51.468;5.804;2023-06-10T02:12:38;3.87;;;2.80;;
20334;SDS011;10325;51.468;5.804;2023-06-10T02:15:11;3.53;;;3.23;;
20334;SDS011;10325;51.468;5.804;2023-06-10T02:17:42;3.40;;;3.10;;
20334;SDS011;10325;51.468;5.804;2023-06-10T02:20:12;3.53;;;3.23;;
20334;SDS011;10325;51.468;5.804;2023-06-10T02:22:47;3.80;;;3.43;;
20334;SDS011;10325;51.468;5.804;2023-06-10T02:25:15;3.30;;;2.87;;
20334;SDS011;10325;51.468;5.804;2023-06-10T02:27:45;3.83;;;2.90;;
20334;SDS011;10325;51.468;5.804;2023-06-10T02:30:16;2.93;;;2.73;;
20334;SDS011;10325;51.468;5.804;2023-06-10T02:32:44;3.60;;;3.00;;
20334;SDS011;10325;51.468;5.804;2023-06-10T02:35:18;3.30;;;3.00;;
20334;SDS011;10325;51.468;5.804;2023-06-10T02:37:50;3.60;;;3.30;;
20334;SDS011;10325;51.468;5.804;2023-06-10T02:40:23;3.57;;;3.10;;
20334;SDS011;10325;51.468;5.804;2023-06-10T02:42:51;3.23;;;2.83;;
20334;SDS011;10325;51.468;5.804;2023-06-10T02:45:23;3.93;;;3.20;;
20334;SDS011;10325;51.468;5.804;2023-06-10T02:47:55;3.70;;;3.30;;
20334;SDS011;10325;51.468;5.804;2023-06-10T02:50:22;3.30;;;3.07;;
20334;SDS011;10325;51.468;5.804;2023-06-10T02:52:52;3.30;;;3.00;;
20334;SDS011;10325;51.468;5.804;2023-06-10T02:55:24;3.33;;;3.03;;
20334;SDS011;10325;51.468;5.804;2023-06-10T02:57:56;3.87;;;3.47;;
20334;SDS011;10325;51.468;5.804;2023-06-10T03:00:27;3.57;;;3.27;;
20334;SDS011;10325;51.468;5.804;2023-06-10T03:03:00;3.50;;;3.20;;
20334;SDS011;10325;51.468;5.804;2023-06-10T03:05:29;3.73;;;3.40;;
20334;SDS011;10325;51.468;5.804;2023-06-10T03:08:02;3.73;;;3.43;;
20334;SDS011;10325;51.468;5.804;2023-06-10T03:10:32;3.57;;;3.27;;
20334;SDS011;10325;51.468;5.804;2023-06-10T03:13:02;3.67;;;2.90;;
20334;SDS011;10325;51.468;5.804;2023-06-10T03:15:35;3.87;;;3.20;;
20334;SDS011;10325;51.468;5.804;2023-06-10T03:18:07;3.10;;;2.90;;
20334;SDS011;10325;51.468;5.804;2023-06-10T03:20:39;3.70;;;3.40;;
20334;SDS011;10325;51.468;5.804;2023-06-10T03:23:12;3.60;;;3.30;;
20334;SDS011;10325;51.468;5.804;2023-06-10T03:25:43;3.90;;;3.50;;
20334;SDS011;10325;51.468;5.804;2023-06-10T03:28:13;3.97;;;3.67;;
20334;SDS011;10325;51.468;5.804;2023-06-10T03:30:43;3.57;;;3.27;;
20334;SDS011;10325;51.468;5.804;2023-06-10T03:33:15;4.20;;;3.73;;
20334;SDS011;10325;51.468;5.804;2023-06-10T03:35:45;3.73;;;3.00;;
20334;SDS011;10325;51.468;5.804;2023-06-10T03:38:16;3.97;;;3.67;;
20334;SDS011;10325;51.468;5.804;2023-06-10T03:40:47;3.60;;;3.30;;
20334;SDS011;10325;51.468;5.804;2023-06-10T03:43:19;3.67;;;3.37;;
20334;SDS011;10325;51.468;5.804;2023-06-10T03:45:52;3.53;;;3.23;;
20334;SDS011;10325;51.468;5.804;2023-06-10T03:48:22;3.93;;;3.50;;
20334;SDS011;10325;51.468;5.804;2023-06-10T03:50:54;4.03;;;3.70;;
20334;SDS011;10325;51.468;5.804;2023-06-10T03:53:24;3.80;;;3.50;;
20334;SDS011;10325;51.468;5.804;2023-06-10T03:55:55;3.60;;;3.30;;
20334;SDS011;10325;51.468;5.804;2023-06-10T03:58:25;3.50;;;3.20;;
20334;SDS011;10325;51.468;5.804;2023-06-10T04:00:57;3.57;;;3.27;;
20334;SDS011;10325;51.468;5.804;2023-06-10T04:03:26;3.50;;;3.20;;
20334;SDS011;10325;51.468;5.804;2023-06-10T04:06:02;3.57;;;3.33;;
20334;SDS011;10325;51.468;5.804;2023-06-10T04:08:33;3.83;;;3.53;;
20334;SDS011;10325;51.468;5.804;2023-06-10T04:11:07;3.63;;;3.33;;
20334;SDS011;10325;51.468;5.804;2023-06-10T04:13:37;3.87;;;3.57;;
20334;SDS011;10325;51.468;5.804;2023-06-10T04:16:08;4.17;;;3.40;;
20334;SDS011;10325;51.468;5.804;2023-06-10T04:18:40;4.17;;;3.77;;
20334;SDS011;10325;51.468;5.804;2023-06-10T04:21:10;3.63;;;3.33;;
20334;SDS011;10325;51.468;5.804;2023-06-10T04:23:41;3.77;;;3.47;;
20334;SDS011;10325;51.468;5.804;2023-06-10T04:26:11;3.53;;;3.30;;
20334;SDS011;10325;51.468;5.804;2023-06-10T04:28:42;3.97;;;3.67;;
20334;SDS011;10325;51.468;5.804;2023-06-10T04:31:13;3.63;;;3.33;;
20334;SDS011;10325;51.468;5.804;2023-06-10T04:33:45;3.97;;;3.13;;
20334;SDS011;10325;51.468;5.804;2023-06-10T04:36:15;3.90;;;3.60;;
20334;SDS011;10325;51.468;5.804;2023-06-10T04:38:46;4.23;;;3.83;;
20334;SDS011;10325;51.468;5.804;2023-06-10T04:41:18;6.43;;;3.93;;
20334;SDS011;10325;51.468;5.804;2023-06-10T04:43:49;4.00;;;3.70;;
20334;SDS011;10325;51.468;5.804;2023-06-10T04:46:20;4.40;;;4.00;;
20334;SDS011;10325;51.468;5.804;2023-06-10T04:48:51;4.27;;;3.87;;
20334;SDS011;10325;51.468;5.804;2023-06-10T04:51:27;3.83;;;3.53;;
20334;SDS011;10325;51.468;5.804;2023-06-10T04:53:59;4.37;;;3.97;;
20334;SDS011;10325;51.468;5.804;2023-06-10T04:56:32;4.17;;;3.70;;
20334;SDS011;10325;51.468;5.804;2023-06-10T04:59:01;4.00;;;3.70;;
20334;SDS011;10325;51.468;5.804;2023-06-10T05:01:34;4.30;;;3.90;;
20334;SDS011;10325;51.468;5.804;2023-06-10T05:04:05;4.33;;;4.00;;
20334;SDS011;10325;51.468;5.804;2023-06-10T05:06:37;4.20;;;3.90;;
20334;SDS011;10325;51.468;5.804;2023-06-10T05:09:09;4.60;;;4.20;;
20334;SDS011;10325;51.468;5.804;2023-06-10T05:11:39;4.80;;;4.40;;
20334;SDS011;10325;51.468;5.804;2023-06-10T05:14:10;4.80;;;4.17;;
20334;SDS011;10325;51.468;5.804;2023-06-10T05:16:39;6.63;;;4.60;;
20334;SDS011;10325;51.468;5.804;2023-06-10T05:19:12;13.67;;;6.07;;
20334;SDS011;10325;51.468;5.804;2023-06-10T05:21:45;21.90;;;8.23;;
20334;SDS011;10325;51.468;5.804;2023-06-10T05:24:18;19.10;;;8.53;;
20334;SDS011;10325;51.468;5.804;2023-06-10T05:26:56;19.20;;;9.17;;
20334;SDS011;10325;51.468;5.804;2023-06-10T05:29:26;19.67;;;9.33;;
20334;SDS011;10325;51.468;5.804;2023-06-10T05:31:57;15.93;;;8.60;;
20334;SDS011;10325;51.468;5.804;2023-06-10T05:34:30;20.43;;;8.87;;
20334;SDS011;10325;51.468;5.804;2023-06-10T05:37:02;15.67;;;8.30;;
20334;SDS011;10325;51.468;5.804;2023-06-10T05:39:35;15.93;;;9.00;;
20334;SDS011;10325;51.468;5.804;2023-06-10T05:42:06;15.03;;;8.80;;
20334;SDS011;10325;51.468;5.804;2023-06-10T05:44:37;14.23;;;8.33;;
20334;SDS011;10325;51.468;5.804;2023-06-10T05:47:08;15.60;;;7.97;;
20334;SDS011;10325;51.468;5.804;2023-06-10T05:49:38;16.63;;;9.03;;
20334;SDS011;10325;51.468;5.804;2023-06-10T05:52:11;14.33;;;8.27;;
20334;SDS011;10325;51.468;5.804;2023-06-10T05:54:41;20.33;;;8.77;;
20334;SDS011;10325;51.468;5.804;2023-06-10T05:57:09;12.87;;;8.33;;
20334;SDS011;10325;51.468;5.804;2023-06-10T05:59:40;15.97;;;8.83;;
20334;SDS011;10325;51.468;5.804;2023-06-10T06:02:11;14.67;;;7.90;;
20334;SDS011;10325;51.468;5.804;2023-06-10T06:04:43;14.00;;;7.73;;
20334;SDS011;10325;51.468;5.804;2023-06-10T06:07:13;13.50;;;7.73;;
20334;SDS011;10325;51.468;5.804;2023-06-10T06:09:43;11.33;;;6.73;;
20334;SDS011;10325;51.468;5.804;2023-06-10T06:12:12;11.30;;;7.63;;
20334;SDS011;10325;51.468;5.804;2023-06-10T06:14:43;12.83;;;6.70;;
20334;SDS011;10325;51.468;5.804;2023-06-10T06:17:11;14.67;;;7.53;;
20334;SDS011;10325;51.468;5.804;2023-06-10T06:19:44;11.13;;;7.17;;
20334;SDS011;10325;51.468;5.804;2023-06-10T06:22:16;9.73;;;6.80;;
20334;SDS011;10325;51.468;5.804;2023-06-10T06:24:50;8.60;;;7.13;;
20334;SDS011;10325;51.468;5.804;2023-06-10T06:27:27;10.03;;;6.97;;
20334;SDS011;10325;51.468;5.804;2023-06-10T06:30:03;9.97;;;6.47;;
20334;SDS011;10325;51.468;5.804;2023-06-10T06:32:35;10.47;;;6.73;;
20334;SDS011;10325;51.468;5.804;2023-06-10T06:35:06;8.50;;;6.20;;
20334;SDS011;10325;51.468;5.804;2023-06-10T06:37:37;6.87;;;5.77;;
20334;SDS011;10325;51.468;5.804;2023-06-10T06:40:07;10.80;;;7.40;;
20334;SDS011;10325;51.468;5.804;2023-06-10T06:42:35;9.37;;;6.50;;
20334;SDS011;10325;51.468;5.804;2023-06-10T06:45:04;10.60;;;5.87;;
20334;SDS011;10325;51.468;5.804;2023-06-10T06:47:36;10.97;;;7.20;;
20334;SDS011;10325;51.468;5.804;2023-06-10T06:50:06;9.50;;;6.70;;
20334;SDS011;10325;51.468;5.804;2023-06-10T06:52:37;8.47;;;6.40;;
20334;SDS011;10325;51.468;5.804;2023-06-10T06:55:11;8.47;;;6.23;;
20334;SDS011;10325;51.468;5.804;2023-06-10T06:57:45;10.47;;;6.70;;
20334;SDS011;10325;51.468;5.804;2023-06-10T07:00:15;11.00;;;6.03;;
20334;SDS011;10325;51.468;5.804;2023-06-10T07:02:44;6.53;;;5.67;;
20334;SDS011;10325;51.468;5.804;2023-06-10T07:05:14;6.83;;;5.97;;
20334;SDS011;10325;51.468;5.804;2023-06-10T07:07:49;8.07;;;6.23;;
20334;SDS011;10325;51.468;5.804;2023-06-10T07:10:25;8.67;;;5.97;;
20334;SDS011;10325;51.468;5.804;2023-06-10T07:12:55;8.40;;;6.40;;
20334;SDS011;10325;51.468;5.804;2023-06-10T07:15:25;11.00;;;6.57;;
20334;SDS011;10325;51.468;5.804;2023-06-10T07:17:55;8.20;;;5.97;;
20334;SDS011;10325;51.468;5.804;2023-06-10T07:20:26;7.63;;;5.90;;
20334;SDS011;10325;51.468;5.804;2023-06-10T07:22:56;7.97;;;5.67;;
20334;SDS011;10325;51.468;5.804;2023-06-10T07:25:27;7.50;;;5.37;;
20334;SDS011;10325;51.468;5.804;2023-06-10T07:27:58;11.57;;;5.43;;
20334;SDS011;10325;51.468;5.804;2023-06-10T07:30:40;6.80;;;5.57;;
20334;SDS011;10325;51.468;5.804;2023-06-10T07:33:12;7.60;;;6.00;;
20334;SDS011;10325;51.468;5.804;2023-06-10T07:35:40;9.57;;;5.50;;
20334;SDS011;10325;51.468;5.804;2023-06-10T07:38:11;6.10;;;5.03;;
20334;SDS011;10325;51.468;5.804;2023-06-10T07:40:42;6.50;;;5.27;;
20334;SDS011;10325;51.468;5.804;2023-06-10T07:43:12;6.47;;;5.17;;
20334;SDS011;10325;51.468;5.804;2023-06-10T07:45:43;7.13;;;5.20;;
20334;SDS011;10325;51.468;5.804;2023-06-10T07:48:11;6.87;;;5.47;;
20334;SDS011;10325;51.468;5.804;2023-06-10T07:50:42;6.17;;;5.57;;
20334;SDS011;10325;51.468;5.804;2023-06-10T07:53:12;7.57;;;5.57;;
20334;SDS011;10325;51.468;5.804;2023-06-10T07:55:45;6.07;;;5.40;;
20334;SDS011;10325;51.468;5.804;2023-06-10T07:58:15;5.93;;;5.13;;
20334;SDS011;10325;51.468;5.804;2023-06-10T08:00:48;7.83;;;5.47;;
20334;SDS011;10325;51.468;5.804;2023-06-10T08:03:19;5.97;;;5.17;;
20334;SDS011;10325;51.468;5.804;2023-06-10T08:05:50;6.90;;;5.10;;
20334;SDS011;10325;51.468;5.804;2023-06-10T08:08:21;6.43;;;4.97;;
20334;SDS011;10325;51.468;5.804;2023-06-10T08:10:49;5.27;;;4.70;;
20334;SDS011;10325;51.468;5.804;2023-06-10T08:13:21;6.33;;;4.63;;
20334;SDS011;10325;51.468;5.804;2023-06-10T08:15:53;5.73;;;5.20;;
20334;SDS011;10325;51.468;5.804;2023-06-10T08:18:27;6.10;;;5.20;;
20334;SDS011;10325;51.468;5.804;2023-06-10T08:20:57;5.17;;;4.67;;
20334;SDS011;10325;51.468;5.804;2023-06-10T08:23:27;5.60;;;5.00;;
20334;SDS011;10325;51.468;5.804;2023-06-10T08:25:57;5.37;;;4.80;;
20334;SDS011;10325;51.468;5.804;2023-06-10T08:28:28;6.77;;;5.23;;
20334;SDS011;10325;51.468;5.804;2023-06-10T08:30:57;5.40;;;4.90;;
20334;SDS011;10325;51.468;5.804;2023-06-10T08:33:27;6.13;;;5.13;;
20334;SDS011;10325;51.468;5.804;2023-06-10T08:35:57;6.00;;;5.43;;
20334;SDS011;10325;51.468;5.804;2023-06-10T08:38:28;5.93;;;5.33;;
20334;SDS011;10325;51.468;5.804;2023-06-10T08:41:01;6.37;;;4.23;;
20334;SDS011;10325;51.468;5.804;2023-06-10T08:43:34;5.97;;;5.37;;
20334;SDS011;10325;51.468;5.804;2023-06-10T08:46:22;6.80;;;5.27;;
20334;SDS011;10325;51.468;5.804;2023-06-10T08:48:52;6.83;;;4.93;;
20334;SDS011;10325;51.468;5.804;2023-06-10T08:51:25;5.70;;;4.70;;
20334;SDS011;10325;51.468;5.804;2023-06-10T08:54:01;5.13;;;4.63;;
20334;SDS011;10325;51.468;5.804;2023-06-10T08:56:38;5.93;;;4.83;;
20334;SDS011;10325;51.468;5.804;2023-06-10T08:59:11;6.23;;;5.00;;
20334;SDS011;10325;51.468;5.804;2023-06-10T09:01:44;5.27;;;4.70;;
20334;SDS011;10325;51.468;5.804;2023-06-10T09:04:14;5.43;;;4.73;;
20334;SDS011;10325;51.468;5.804;2023-06-10T09:06:44;5.33;;;4.83;;
20334;SDS011;10325;51.468;5.804;2023-06-10T09:09:19;5.53;;;5.03;;
20334;SDS011;10325;51.468;5.804;2023-06-10T09:12:03;4.87;;;4.37;;
20334;SDS011;10325;51.468;5.804;2023-06-10T09:14:39;6.23;;;4.50;;
20334;SDS011;10325;51.468;5.804;2023-06-10T09:17:10;5.23;;;4.33;;
20334;SDS011;10325;51.468;5.804;2023-06-10T09:19:43;6.20;;;4.43;;
20334;SDS011;10325;51.468;5.804;2023-06-10T09:22:11;5.13;;;4.63;;
20334;SDS011;10325;51.468;5.804;2023-06-10T09:24:40;5.30;;;4.80;;
20334;SDS011;10325;51.468;5.804;2023-06-10T09:27:14;5.77;;;4.63;;
20334;SDS011;10325;51.468;5.804;2023-06-10T09:29:52;5.37;;;4.87;;
20334;SDS011;10325;51.468;5.804;2023-06-10T09:32:38;5.43;;;4.93;;
20334;SDS011;10325;51.468;5.804;2023-06-10T09:35:19;5.50;;;4.57;;
20334;SDS011;10325;51.468;5.804;2023-06-10T09:37:56;5.20;;;4.80;;
20334;SDS011;10325;51.468;5.804;2023-06-10T09:40:31;6.13;;;4.77;;
20334;SDS011;10325;51.468;5.804;2023-06-10T09:43:07;4.93;;;4.40;;
20334;SDS011;10325;51.468;5.804;2023-06-10T09:45:34;6.33;;;4.80;;
20334;SDS011;10325;51.468;5.804;2023-06-10T09:48:04;6.60;;;4.70;;
20334;SDS011;10325;51.468;5.804;2023-06-10T09:50:33;5.70;;;4.80;;
20334;SDS011;10325;51.468;5.804;2023-06-10T09:53:21;6.90;;;5.00;;
20334;SDS011;10325;51.468;5.804;2023-06-10T09:55:55;5.27;;;4.77;;
20334;SDS011;10325;51.468;5.804;2023-06-10T09:58:35;5.00;;;4.50;;
20334;SDS011;10325;51.468;5.804;2023-06-10T10:01:08;4.83;;;4.43;;
20334;SDS011;10325;51.468;5.804;2023-06-10T10:03:51;5.60;;;4.83;;
20334;SDS011;10325;51.468;5.804;2023-06-10T10:06:24;7.93;;;4.90;;
20334;SDS011;10325;51.468;5.804;2023-06-10T10:08:56;6.17;;;4.90;;
20334;SDS011;10325;51.468;5.804;2023-06-10T10:11:29;5.20;;;4.70;;
20334;SDS011;10325;51.468;5.804;2023-06-10T10:14:03;4.67;;;4.27;;
20334;SDS011;10325;51.468;5.804;2023-06-10T10:16:37;6.03;;;4.43;;
20334;SDS011;10325;51.468;5.804;2023-06-10T10:22:26;4.80;;;4.40;;
20334;SDS011;10325;51.468;5.804;2023-06-10T10:25:05;5.20;;;4.70;;
20334;SDS011;10325;51.468;5.804;2023-06-10T10:28:11;6.03;;;5.03;;
20334;SDS011;10325;51.468;5.804;2023-06-10T10:30:50;5.87;;;4.97;;
20334;SDS011;10325;51.468;5.804;2023-06-10T10:33:36;5.07;;;4.67;;
20334;SDS011;10325;51.468;5.804;2023-06-10T10:36:28;5.40;;;4.83;;
20334;SDS011;10325;51.468;5.804;2023-06-10T10:38:57;7.00;;;4.87;;
20334;SDS011;10325;51.468;5.804;2023-06-10T10:41:28;5.93;;;5.07;;
20334;SDS011;10325;51.468;5.804;2023-06-10T10:44:01;5.97;;;4.60;;
20334;SDS011;10325;51.468;5.804;2023-06-10T10:46:37;5.27;;;4.73;;
20334;SDS011;10325;51.468;5.804;2023-06-10T10:49:19;5.43;;;4.80;;
20334;SDS011;10325;51.468;5.804;2023-06-10T10:51:55;6.17;;;4.90;;
20334;SDS011;10325;51.468;5.804;2023-06-10T10:54:33;4.80;;;4.40;;
20334;SDS011;10325;51.468;5.804;2023-06-10T10:59:57;5.23;;;4.37;;
20334;SDS011;10325;51.468;5.804;2023-06-10T11:02:43;5.10;;;4.50;;
20334;SDS011;10325;51.468;5.804;2023-06-10T11:05:17;5.10;;;4.60;;
20334;SDS011;10325;51.468;5.804;2023-06-10T11:07:59;5.13;;;4.63;;
20334;SDS011;10325;51.468;5.804;2023-06-10T11:10:30;5.30;;;4.73;;
20334;SDS011;10325;51.468;5.804;2023-06-10T11:13:07;5.10;;;4.70;;
20334;SDS011;10325;51.468;5.804;2023-06-10T11:15:46;5.00;;;4.60;;
20334;SDS011;10325;51.468;5.804;2023-06-10T11:18:26;5.33;;;4.83;;
20334;SDS011;10325;51.468;5.804;2023-06-10T11:21:08;6.93;;;5.10;;
20334;SDS011;10325;51.468;5.804;2023-06-10T11:23:40;5.30;;;4.80;;
20334;SDS011;10325;51.468;5.804;2023-06-10T11:34:08;6.03;;;4.90;;
20334;SDS011;10325;51.468;5.804;2023-06-10T11:36:40;6.13;;;5.03;;
20334;SDS011;10325;51.468;5.804;2023-06-10T11:39:09;5.43;;;4.93;;
20334;SDS011;10325;51.468;5.804;2023-06-10T11:41:40;6.30;;;5.00;;
20334;SDS011;10325;51.468;5.804;2023-06-10T11:44:13;5.23;;;4.73;;
20334;SDS011;10325;51.468;5.804;2023-06-10T11:46:47;4.80;;;4.30;;
20334;SDS011;10325;51.468;5.804;2023-06-10T11:49:20;4.83;;;4.40;;
20334;SDS011;10325;51.468;5.804;2023-06-10T11:51:56;5.30;;;4.80;;
20334;SDS011;10325;51.468;5.804;2023-06-10T11:54:24;7.60;;;5.60;;
20334;SDS011;10325;51.468;5.804;2023-06-10T11:56:57;5.53;;;4.97;;
20334;SDS011;10325;51.468;5.804;2023-06-10T11:59:30;5.40;;;4.90;;
20334;SDS011;10325;51.468;5.804;2023-06-10T12:02:00;5.17;;;4.67;;
20334;SDS011;10325;51.468;5.804;2023-06-10T12:04:31;5.20;;;4.70;;
20334;SDS011;10325;51.468;5.804;2023-06-10T12:06:59;4.70;;;4.30;;
20334;SDS011;10325;51.468;5.804;2023-06-10T12:09:29;7.13;;;4.77;;
20334;SDS011;10325;51.468;5.804;2023-06-10T12:12:05;4.53;;;4.13;;
20334;SDS011;10325;51.468;5.804;2023-06-10T12:17:39;5.20;;;4.70;;
20334;SDS011;10325;51.468;5.804;2023-06-10T12:20:30;6.80;;;4.93;;
20334;SDS011;10325;51.468;5.804;2023-06-10T12:23:08;7.03;;;5.40;;
20334;SDS011;10325;51.468;5.804;2023-06-10T12:25:39;5.83;;;4.70;;
20334;SDS011;10325;51.468;5.804;2023-06-10T12:28:25;5.07;;;4.57;;
20334;SDS011;10325;51.468;5.804;2023-06-10T12:31:08;4.93;;;4.43;;
20334;SDS011;10325;51.468;5.804;2023-06-10T12:33:38;5.67;;;4.83;;
20334;SDS011;10325;51.468;5.804;2023-06-10T12:36:15;5.27;;;4.77;;
20334;SDS011;10325;51.468;5.804;2023-06-10T12:38:47;5.33;;;4.90;;
20334;SDS011;10325;51.468;5.804;2023-06-10T12:41:32;5.07;;;4.60;;
20334;SDS011;10325;51.468;5.804;2023-06-10T12:44:15;4.67;;;4.27;;
20334;SDS011;10325;51.468;5.804;2023-06-10T12:46:59;4.80;;;4.37;;
20334;SDS011;10325;51.468;5.804;2023-06-10T12:49:36;5.33;;;4.70;;
20334;SDS011;10325;51.468;5.804;2023-06-10T12:52:06;4.90;;;4.37;;
20334;SDS011;10325;51.468;5.804;2023-06-10T12:54:34;5.03;;;4.63;;
20334;SDS011;10325;51.468;5.804;2023-06-10T12:57:05;5.00;;;4.53;;
20334;SDS011;10325;51.468;5.804;2023-06-10T12:59:35;5.77;;;5.20;;
20334;SDS011;10325;51.468;5.804;2023-06-10T13:02:11;5.03;;;4.53;;
20334;SDS011;10325;51.468;5.804;2023-06-10T13:04:46;4.70;;;4.30;;
20334;SDS011;10325;51.468;5.804;2023-06-10T13:07:21;5.50;;;5.07;;
20334;SDS011;10325;51.468;5.804;2023-06-10T13:09:52;5.33;;;4.70;;
20334;SDS011;10325;51.468;5.804;2023-06-10T13:12:25;4.57;;;4.10;;
20334;SDS011;10325;51.468;5.804;2023-06-10T13:15:14;5.20;;;4.70;;
20334;SDS011;10325;51.468;5.804;2023-06-10T13:17:41;5.10;;;4.70;;
20334;SDS011;10325;51.468;5.804;2023-06-10T13:20:19;6.00;;;4.90;;
20334;SDS011;10325;51.468;5.804;2023-06-10T13:22:54;5.80;;;4.70;;
20334;SDS011;10325;51.468;5.804;2023-06-10T13:25:23;5.43;;;4.93;;
20334;SDS011;10325;51.468;5.804;2023-06-10T13:27:56;4.93;;;4.53;;
20334;SDS011;10325;51.468;5.804;2023-06-10T13:30:23;4.60;;;4.30;;
20334;SDS011;10325;51.468;5.804;2023-06-10T13:32:54;5.27;;;4.73;;
20334;SDS011;10325;51.468;5.804;2023-06-10T13:35:25;5.23;;;4.30;;
20334;SDS011;10325;51.468;5.804;2023-06-10T13:37:57;5.50;;;4.93;;
20334;SDS011;10325;51.468;5.804;2023-06-10T13:40:28;6.40;;;4.97;;
20334;SDS011;10325;51.468;5.804;2023-06-10T13:42:58;5.70;;;4.97;;
20334;SDS011;10325;51.468;5.804;2023-06-10T13:45:31;6.53;;;5.00;;
20334;SDS011;10325;51.468;5.804;2023-06-10T13:48:04;5.83;;;5.10;;
20334;SDS011;10325;51.468;5.804;2023-06-10T13:50:37;4.73;;;4.33;;
20334;SDS011;10325;51.468;5.804;2023-06-10T13:53:06;4.93;;;4.53;;
20334;SDS011;10325;51.468;5.804;2023-06-10T13:55:35;5.77;;;4.70;;
20334;SDS011;10325;51.468;5.804;2023-06-10T13:58:05;5.67;;;5.07;;
20334;SDS011;10325;51.468;5.804;2023-06-10T14:00:35;5.40;;;5.00;;
20334;SDS011;10325;51.468;5.804;2023-06-10T14:03:07;5.20;;;4.60;;
20334;SDS011;10325;51.468;5.804;2023-06-10T14:05:36;5.30;;;4.80;;
20334;SDS011;10325;51.468;5.804;2023-06-10T14:08:05;7.47;;;5.00;;
20334;SDS011;10325;51.468;5.804;2023-06-10T14:10:42;5.40;;;4.90;;
20334;SDS011;10325;51.468;5.804;2023-06-10T14:13:10;5.17;;;4.67;;
20334;SDS011;10325;51.468;5.804;2023-06-10T14:15:41;5.37;;;4.70;;
20334;SDS011;10325;51.468;5.804;2023-06-10T14:18:09;5.10;;;4.60;;
20334;SDS011;10325;51.468;5.804;2023-06-10T14:20:40;5.10;;;4.60;;
20334;SDS011;10325;51.468;5.804;2023-06-10T14:23:10;5.97;;;5.37;;
20334;SDS011;10325;51.468;5.804;2023-06-10T14:25:42;5.30;;;4.80;;
20334;SDS011;10325;51.468;5.804;2023-06-10T14:28:15;6.07;;;4.80;;
20334;SDS011;10325;51.468;5.804;2023-06-10T14:30:45;5.13;;;4.50;;
20334;SDS011;10325;51.468;5.804;2023-06-10T14:33:17;4.60;;;4.20;;
20334;SDS011;10325;51.468;5.804;2023-06-10T14:35:52;5.37;;;4.87;;
20334;SDS011;10325;51.468;5.804;2023-06-10T14:38:22;5.63;;;5.13;;
20334;SDS011;10325;51.468;5.804;2023-06-10T14:40:58;6.57;;;5.10;;
20334;SDS011;10325;51.468;5.804;2023-06-10T14:43:29;5.50;;;5.00;;
20334;SDS011;10325;51.468;5.804;2023-06-10T14:45:56;5.37;;;4.93;;
20334;SDS011;10325;51.468;5.804;2023-06-10T14:48:28;5.50;;;5.00;;
20334;SDS011;10325;51.468;5.804;2023-06-10T14:50:56;5.40;;;4.90;;
20334;SDS011;10325;51.468;5.804;2023-06-10T14:53:28;5.03;;;4.57;;
20334;SDS011;10325;51.468;5.804;2023-06-10T14:56:02;5.37;;;4.90;;
20334;SDS011;10325;51.468;5.804;2023-06-10T14:58:30;5.17;;;4.67;;
20334;SDS011;10325;51.468;5.804;2023-06-10T15:00:59;4.90;;;4.47;;
20334;SDS011;10325;51.468;5.804;2023-06-10T15:03:29;5.00;;;4.60;;
20334;SDS011;10325;51.468;5.804;2023-06-10T15:06:01;5.53;;;5.03;;
20334;SDS011;10325;51.468;5.804;2023-06-10T15:08:31;4.77;;;4.37;;
20334;SDS011;10325;51.468;5.804;2023-06-10T15:11:02;5.20;;;4.73;;
20334;SDS011;10325;51.468;5.804;2023-06-10T15:13:33;5.40;;;4.90;;
20334;SDS011;10325;51.468;5.804;2023-06-10T15:16:04;5.07;;;4.67;;
20334;SDS011;10325;51.468;5.804;2023-06-10T15:18:36;5.73;;;5.20;;
20334;SDS011;10325;51.468;5.804;2023-06-10T15:21:14;5.27;;;4.87;;
20334;SDS011;10325;51.468;5.804;2023-06-10T15:23:46;5.57;;;4.90;;
20334;SDS011;10325;51.468;5.804;2023-06-10T15:26:16;5.50;;;5.00;;
20334;SDS011;10325;51.468;5.804;2023-06-10T15:28:49;5.63;;;5.13;;
20334;SDS011;10325;51.468;5.804;2023-06-10T15:31:16;5.70;;;5.13;;
20334;SDS011;10325;51.468;5.804;2023-06-10T15:33:48;5.60;;;5.10;;
20334;SDS011;10325;51.468;5.804;2023-06-10T15:36:20;5.20;;;4.70;;
20334;SDS011;10325;51.468;5.804;2023-06-10T15:38:51;5.70;;;5.17;;